Flugplatz Kitzingen AAF (ETIN)

Hier findest Du alle Informationen zum Flugplatz Kitzingen AAF (ETIN).

Informationen für Piloten zum Flugplatz Kitzingen AAF

Hier findest Du alle relevanten Informationen, die Du als Pilot benötigst, um Kitzingen AAF anzufliegen.

Flugplatz: Kitzingen AAF ICAO-Code: ETIN
Frequenz Turm: 118.255 Mhz GAFOR Gebiet: 54
Frequenz Ground: 118.255 Mhz Mogas: nein
Platzrunde: NO 1700 ft Landegebühr: -
Platzhöhe: - Sunrise: 06:52 Uhr UTC
Pisten: 06/24 - 2000 m x ~25 m, BIT Sunset: 15:23 Uhr UTC

Mitglieder, die in Kitzingen AAF fliegen

Flugwetter am Flugplatz Kitzingen AAF

Die METAR Information stammen aus EDDN (68.62 km entfernt).

METAR Code:
2020/11/29 23:50
EDDN 292350Z VRB01KT CAVOK M06/M06 Q1026

Flugschulen am Flugplatz Kitzingen AAF

Am Flugplatz Kitzingen AAF gibt es leider keine Flugschule.

Benachbarte Flugplätze und Flugschulen

Es gibt 21 weitere Flugplätze in einem Umkreis von 50 km um den Flugplatz Kitzingen AAF.

Jetzt anmelden

Passwort vergessen

Umfrage Archiv

Wie viele Flugstunden seid Ihr in Eurer Pilotenausbildung geflogen?

31 - 40 Stunden
46.6 %
41 - 50 Stunden
24.1 %
exakt 30 Stunden
13.8 %
über 60 Stunden
10.3 %
51 - 60 Stunden
5.2 %
Stimmen: 58 | Diskussion
Anzeige: Roland Aircraft
Statistik Alle Mitglieder

Aktuell sind 25 Besucher online.

Anzeige: VFR Sprechfunk Simulator


Anzeige: Pocket FMS